Time,TemperatureF,DewpointF,PressureIn,WindDirection,WindDirectionDegrees,WindSpeedMPH,WindSpeedGustMPH,Humidity,HourlyPrecipIn,Conditions,Clouds,dailyrainin,SolarRadiationWatts/m^2,SoftwareType,DateUTC
2013-03-17 00:03:00,16.0,13.0,-100.00,NW,304,6.0,16.0,86,0.00,,,0.00,0.000000,,2013-03-17 04:03:00,
2013-03-17 00:12:00,14.0,8.0,-100.00,NNW,336,7.0,19.0,75,0.00,,,0.00,0.000000,,2013-03-17 04:12:00,
2013-03-17 00:43:00,14.0,8.0,-100.00,NNW,336,7.0,19.0,75,0.00,,,0.00,0.000000,,2013-03-17 04:43:00,
2013-03-17 00:53:00,14.0,8.0,-100.00,NNW,336,7.0,19.0,75,0.00,,,0.00,0.000000,,2013-03-17 04:53:00,
2013-03-17 01:02:00,14.0,8.0,-100.00,NNW,336,7.0,19.0,75,0.00,,,0.00,0.000000,,2013-03-17 05:02:00,
2013-03-17 01:12:00,12.0,4.0,-100.00,NNW,341,7.0,25.0,71,0.00,,,0.00,0.000000,,2013-03-17 05:12:00,
2013-03-17 01:42:00,12.0,4.0,-100.00,NNW,341,7.0,25.0,71,0.00,,,0.00,0.000000,,2013-03-17 05:42:00,
2013-03-17 01:52:00,12.0,4.0,-100.00,NNW,341,7.0,25.0,71,0.00,,,0.00,0.000000,,2013-03-17 05:52:00,
2013-03-17 02:02:00,12.0,4.0,-100.00,NNW,341,7.0,25.0,71,0.00,,,0.00,0.000000,,2013-03-17 06:02:00,
2013-03-17 02:12:00,10.0,0.0,-100.00,NNW,339,8.0,16.0,64,0.00,,,0.00,0.000000,,2013-03-17 06:12:00,
2013-03-17 02:42:00,10.0,0.0,-100.00,NNW,339,8.0,16.0,64,0.00,,,0.00,0.000000,,2013-03-17 06:42:00,
2013-03-17 02:52:00,10.0,0.0,-100.00,NNW,339,8.0,16.0,64,0.00,,,0.00,0.000000,,2013-03-17 06:52:00,
2013-03-17 03:02:00,10.0,0.0,-100.00,NNW,339,8.0,16.0,64,0.00,,,0.00,0.000000,,2013-03-17 07:02:00,
2013-03-17 03:12:00,8.0,-1.0,-100.00,NW,316,6.0,11.0,65,0.00,,,0.00,0.000000,,2013-03-17 07:12:00,
2013-03-17 03:42:00,8.0,-1.0,-100.00,NW,316,6.0,11.0,65,0.00,,,0.00,0.000000,,2013-03-17 07:42:00,
2013-03-17 03:52:00,8.0,-1.0,-100.00,NW,316,6.0,11.0,65,0.00,,,0.00,0.000000,,2013-03-17 07:52:00,
2013-03-17 04:03:00,8.0,-1.0,-100.00,NW,316,6.0,11.0,65,0.00,,,0.00,0.000000,,2013-03-17 08:03:00,
2013-03-17 04:12:00,6.0,-2.0,-100.00,WNW,297,4.0,10.0,68,0.00,,,0.00,0.000000,,2013-03-17 08:12:00,
2013-03-17 04:42:00,6.0,-2.0,-100.00,WNW,297,4.0,10.0,68,0.00,,,0.00,0.000000,,2013-03-17 08:42:00,
2013-03-17 04:52:00,6.0,-2.0,-100.00,WNW,297,4.0,10.0,68,0.00,,,0.00,0.000000,,2013-03-17 08:52:00,
2013-03-17 05:02:00,6.0,-2.0,-100.00,WNW,297,4.0,10.0,68,0.00,,,0.00,0.000000,,2013-03-17 09:02:00,
2013-03-17 05:12:00,4.0,-4.0,-100.00,WNW,299,5.0,7.0,70,0.00,,,0.00,0.000000,,2013-03-17 09:12:00,
2013-03-17 05:43:00,4.0,-4.0,-100.00,WNW,299,5.0,7.0,70,0.00,,,0.00,0.000000,,2013-03-17 09:43:00,
2013-03-17 05:53:00,4.0,-4.0,-100.00,WNW,299,5.0,7.0,70,0.00,,,0.00,0.000000,,2013-03-17 09:53:00,
2013-03-17 06:03:00,4.0,-4.0,-100.00,WNW,299,5.0,7.0,70,0.00,,,0.00,0.000000,,2013-03-17 10:03:00,
2013-03-17 06:12:00,4.0,-3.0,-100.00,NW,316,5.0,9.0,71,0.00,,,0.00,0.000000,,2013-03-17 10:12:00,
2013-03-17 06:42:00,4.0,-3.0,-100.00,NW,316,5.0,9.0,71,0.00,,,0.00,0.000000,,2013-03-17 10:42:00,
2013-03-17 06:52:00,4.0,-3.0,-100.00,NW,316,5.0,9.0,71,0.00,,,0.00,0.000000,,2013-03-17 10:52:00,
2013-03-17 07:02:00,4.0,-3.0,-100.00,NW,316,5.0,9.0,71,0.00,,,0.00,0.000000,,2013-03-17 11:02:00,
2013-03-17 07:12:00,4.0,-4.0,-100.00,NW,306,4.0,8.0,70,0.00,,,0.00,0.000000,,2013-03-17 11:12:00,
2013-03-17 07:43:00,4.0,-4.0,-100.00,NW,306,4.0,8.0,70,0.00,,,0.00,0.000000,,2013-03-17 11:43:00,
2013-03-17 07:52:00,4.0,-4.0,-100.00,NW,306,4.0,8.0,70,0.00,,,0.00,0.000000,,2013-03-17 11:52:00,
2013-03-17 08:02:00,4.0,-4.0,-100.00,NW,306,4.0,8.0,70,0.00,,,0.00,0.000000,,2013-03-17 12:02:00,
2013-03-17 08:12:00,3.0,-5.0,-100.00,NW,325,4.0,9.0,70,0.00,,,0.00,2.000000,,2013-03-17 12:12:00,
2013-03-17 08:33:00,3.0,-5.0,-100.00,NW,325,4.0,9.0,70,0.00,,,0.00,2.000000,,2013-03-17 12:33:00,
2013-03-17 08:43:00,3.0,-5.0,-100.00,NW,325,4.0,9.0,70,0.00,,,0.00,2.000000,,2013-03-17 12:43:00,
2013-03-17 08:52:00,3.0,-5.0,-100.00,NW,325,4.0,9.0,70,0.00,,,0.00,2.000000,,2013-03-17 12:52:00,
2013-03-17 09:02:00,3.0,-5.0,-100.00,NW,325,4.0,9.0,70,0.00,,,0.00,2.000000,,2013-03-17 13:02:00,
2013-03-17 09:12:00,5.0,-4.0,-100.00,NW,316,3.0,8.0,67,0.00,,,0.00,57.000000,,2013-03-17 13:12:00,
2013-03-17 09:43:00,5.0,-4.0,-100.00,NW,316,3.0,8.0,67,0.00,,,0.00,57.000000,,2013-03-17 13:43:00,
2013-03-17 09:52:00,5.0,-4.0,-100.00,NW,316,3.0,8.0,67,0.00,,,0.00,57.000000,,2013-03-17 13:52:00,
2013-03-17 10:02:00,5.0,-4.0,-100.00,NW,316,3.0,8.0,67,0.00,,,0.00,57.000000,,2013-03-17 14:02:00,
2013-03-17 10:12:00,9.0,-2.0,-100.00,WNW,295,4.0,8.0,61,0.00,,,0.00,163.000000,,2013-03-17 14:12:00,
2013-03-17 10:33:00,9.0,-2.0,-100.00,WNW,295,4.0,8.0,61,0.00,,,0.00,163.000000,,2013-03-17 14:33:00,
2013-03-17 10:43:00,9.0,-2.0,-100.00,WNW,295,4.0,8.0,61,0.00,,,0.00,163.000000,,2013-03-17 14:43:00,
2013-03-17 10:53:00,9.0,-2.0,-100.00,WNW,295,4.0,8.0,61,0.00,,,0.00,163.000000,,2013-03-17 14:53:00,
2013-03-17 11:02:00,9.0,-2.0,-100.00,WNW,295,4.0,8.0,61,0.00,,,0.00,163.000000,,2013-03-17 15:02:00,
2013-03-17 11:12:00,16.0,3.0,-100.00,ENE,68,3.0,9.0,55,0.00,,,0.00,327.000000,,2013-03-17 15:12:00,
2013-03-17 11:33:00,16.0,3.0,-100.00,ENE,68,3.0,9.0,55,0.00,,,0.00,327.000000,,2013-03-17 15:33:00,
2013-03-17 11:43:00,16.0,3.0,-100.00,ENE,68,3.0,9.0,55,0.00,,,0.00,327.000000,,2013-03-17 15:43:00,
2013-03-17 11:53:00,16.0,3.0,-100.00,ENE,68,3.0,9.0,55,0.00,,,0.00,327.000000,,2013-03-17 15:53:00,
2013-03-17 12:03:00,16.0,3.0,-100.00,ENE,68,3.0,9.0,55,0.00,,,0.00,327.000000,,2013-03-17 16:03:00,
2013-03-17 12:12:00,19.0,3.0,-100.00,NE,52,4.0,10.0,50,0.00,,,0.00,509.000000,,2013-03-17 16:12:00,
2013-03-17 12:33:00,19.0,3.0,-100.00,NE,52,4.0,10.0,50,0.00,,,0.00,509.000000,,2013-03-17 16:33:00,
2013-03-17 12:43:00,19.0,3.0,-100.00,NE,52,4.0,10.0,50,0.00,,,0.00,509.000000,,2013-03-17 16:43:00,
2013-03-17 12:52:00,19.0,3.0,-100.00,NE,52,4.0,10.0,50,0.00,,,0.00,509.000000,,2013-03-17 16:52:00,
2013-03-17 13:02:00,19.0,3.0,-100.00,NE,52,4.0,10.0,50,0.00,,,0.00,509.000000,,2013-03-17 17:02:00,
2013-03-17 13:12:00,21.0,4.0,-100.00,SE,127,5.0,11.0,46,0.00,,,0.00,810.000000,,2013-03-17 17:12:00,
2013-03-17 13:42:00,21.0,4.0,-100.00,SE,127,5.0,11.0,46,0.00,,,0.00,810.000000,,2013-03-17 17:42:00,
2013-03-17 13:53:00,21.0,4.0,-100.00,SE,127,5.0,11.0,46,0.00,,,0.00,810.000000,,2013-03-17 17:53:00,
2013-03-17 14:02:00,21.0,4.0,-100.00,SE,127,5.0,11.0,46,0.00,,,0.00,810.000000,,2013-03-17 18:02:00,
2013-03-17 14:12:00,24.0,3.0,-100.00,SSE,149,6.0,13.0,39,0.00,,,0.00,802.000000,,2013-03-17 18:12:00,
2013-03-17 14:42:00,24.0,3.0,-100.00,SSE,149,6.0,13.0,39,0.00,,,0.00,802.000000,,2013-03-17 18:42:00,
2013-03-17 14:52:00,24.0,3.0,-100.00,SSE,149,6.0,13.0,39,0.00,,,0.00,802.000000,,2013-03-17 18:52:00,
2013-03-17 15:02:00,24.0,3.0,-100.00,SSE,149,6.0,13.0,39,0.00,,,0.00,802.000000,,2013-03-17 19:02:00,
2013-03-17 15:12:00,26.0,2.0,-100.00,SSW,206,5.0,14.0,35,0.00,,,0.00,801.000000,,2013-03-17 19:12:00,
2013-03-17 15:42:00,26.0,2.0,-100.00,SSW,206,5.0,14.0,35,0.00,,,0.00,801.000000,,2013-03-17 19:42:00,
2013-03-17 15:53:00,26.0,2.0,-100.00,SSW,206,5.0,14.0,35,0.00,,,0.00,801.000000,,2013-03-17 19:53:00,
2013-03-17 16:02:00,26.0,2.0,-100.00,SSW,206,5.0,14.0,35,0.00,,,0.00,801.000000,,2013-03-17 20:02:00,
2013-03-17 16:12:00,26.0,2.0,-100.00,SSE,166,7.0,14.0,35,0.00,,,0.00,724.000000,,2013-03-17 20:12:00,
2013-03-17 16:33:00,26.0,2.0,-100.00,SSE,166,7.0,14.0,35,0.00,,,0.00,724.000000,,2013-03-17 20:33:00,
2013-03-17 16:43:00,26.0,2.0,-100.00,SSE,166,7.0,14.0,35,0.00,,,0.00,724.000000,,2013-03-17 20:43:00,
2013-03-17 16:52:00,26.0,2.0,-100.00,SSE,166,7.0,14.0,35,0.00,,,0.00,724.000000,,2013-03-17 20:52:00,
2013-03-17 17:03:00,26.0,2.0,-100.00,SSE,166,7.0,14.0,35,0.00,,,0.00,724.000000,,2013-03-17 21:03:00,
2013-03-17 17:12:00,26.0,3.0,-100.00,SSE,162,6.0,14.0,37,0.00,,,0.00,595.000000,,2013-03-17 21:12:00,
2013-03-17 17:33:00,26.0,3.0,-100.00,SSE,162,6.0,14.0,37,0.00,,,0.00,595.000000,,2013-03-17 21:33:00,
2013-03-17 17:43:00,26.0,3.0,-100.00,SSE,162,6.0,14.0,37,0.00,,,0.00,595.000000,,2013-03-17 21:43:00,
2013-03-17 17:52:00,26.0,3.0,-100.00,SSE,162,6.0,14.0,37,0.00,,,0.00,595.000000,,2013-03-17 21:52:00,
2013-03-17 18:03:00,26.0,3.0,-100.00,SSE,162,6.0,14.0,37,0.00,,,0.00,595.000000,,2013-03-17 22:03:00,
2013-03-17 18:12:00,25.0,2.0,-100.00,SSE,168,7.0,14.0,36,0.00,,,0.00,421.000000,,2013-03-17 22:12:00,
2013-03-17 18:42:00,25.0,2.0,-100.00,SSE,168,7.0,14.0,36,0.00,,,0.00,421.000000,,2013-03-17 22:42:00,
2013-03-17 18:53:00,25.0,2.0,-100.00,SSE,168,7.0,14.0,36,0.00,,,0.00,421.000000,,2013-03-17 22:53:00,
2013-03-17 19:02:00,25.0,2.0,-100.00,SSE,168,7.0,14.0,36,0.00,,,0.00,421.000000,,2013-03-17 23:02:00,
2013-03-17 19:12:00,23.0,1.0,-100.00,SSE,151,5.0,13.0,38,0.00,,,0.00,224.000000,,2013-03-17 23:12:00,
2013-03-17 19:33:00,23.0,1.0,-100.00,SSE,151,5.0,13.0,38,0.00,,,0.00,224.000000,,2013-03-17 23:33:00,
2013-03-17 19:43:00,23.0,1.0,-100.00,SSE,151,5.0,13.0,38,0.00,,,0.00,224.000000,,2013-03-17 23:43:00,
2013-03-17 19:53:00,23.0,1.0,-100.00,SSE,151,5.0,13.0,38,0.00,,,0.00,224.000000,,2013-03-17 23:53:00,
2013-03-17 20:03:00,23.0,1.0,-100.00,SSE,151,5.0,13.0,38,0.00,,,0.00,224.000000,,2013-03-18 00:03:00,
2013-03-17 21:12:00,15.0,5.0,-100.00,SSE,156,5.0,9.0,64,-99.99,,,0.00,0.000000,,2013-03-18 01:12:00,
2013-03-17 21:33:00,15.0,5.0,-100.00,SSE,156,5.0,9.0,64,-99.99,,,0.00,0.000000,,2013-03-18 01:33:00,
2013-03-17 21:42:00,15.0,5.0,-100.00,SSE,156,5.0,9.0,64,-99.99,,,0.00,0.000000,,2013-03-18 01:42:00,
2013-03-17 21:52:00,15.0,5.0,-100.00,SSE,156,5.0,9.0,64,-99.99,,,0.00,0.000000,,2013-03-18 01:52:00,
2013-03-17 22:02:00,15.0,5.0,-100.00,SSE,156,5.0,9.0,64,-99.99,,,0.00,0.000000,,2013-03-18 02:02:00,
2013-03-17 22:42:00,14.0,6.0,-100.00,SSE,160,4.0,10.0,71,0.00,,,0.00,0.000000,,2013-03-18 02:42:00,
2013-03-17 22:52:00,14.0,6.0,-100.00,SSE,160,4.0,10.0,71,0.00,,,0.00,0.000000,,2013-03-18 02:52:00,
2013-03-17 23:03:00,14.0,6.0,-100.00,SSE,160,4.0,10.0,71,0.00,,,0.00,0.000000,,2013-03-18 03:03:00,
2013-03-17 23:11:00,14.0,6.0,-100.00,SSE,160,4.0,10.0,71,0.00,,,0.00,0.000000,,2013-03-18 03:11:00,
2013-03-17 23:12:00,12.0,6.0,-100.00,SSE,155,4.0,8.0,76,0.00,,,0.00,0.000000,,2013-03-18 03:12:00,
2013-03-17 23:42:00,12.0,6.0,-100.00,SSE,155,4.0,8.0,76,0.00,,,0.00,0.000000,,2013-03-18 03:42:00,
2013-03-17 23:53:00,12.0,6.0,-100.00,SSE,155,4.0,8.0,76,0.00,,,0.00,0.000000,,2013-03-18 03:53:00,